createdAt,value
2018-05-03T00:00:37.910Z,11.10
2018-05-03T00:03:07.037Z,10.80
2018-05-03T00:05:35.377Z,10.80
2018-05-03T00:08:03.677Z,10.80
2018-05-03T00:10:32.012Z,10.90
2018-05-03T00:13:00.304Z,11.00
2018-05-03T00:15:28.656Z,11.00
2018-05-03T00:17:57.036Z,11.00
2018-05-03T00:20:25.333Z,11.00
2018-05-03T00:22:53.680Z,11.00
2018-05-03T00:25:21.976Z,11.10
2018-05-03T00:27:50.321Z,11.00
2018-05-03T00:30:19.384Z,10.80
2018-05-03T00:32:47.681Z,10.80
2018-05-03T00:35:16.033Z,11.00
2018-05-03T00:37:44.383Z,10.90
2018-05-03T00:40:12.672Z,11.00
2018-05-03T00:42:42.516Z,10.70
2018-05-03T00:45:11.582Z,10.80
2018-05-03T00:47:39.893Z,10.80
2018-05-03T00:50:08.236Z,10.90
2018-05-03T00:52:36.529Z,10.80
2018-05-03T00:55:04.957Z,10.80
2018-05-03T00:57:33.256Z,10.90
2018-05-03T01:00:01.613Z,10.80
2018-05-03T01:02:29.956Z,10.80
2018-05-03T01:04:59.033Z,10.80
2018-05-03T01:07:27.424Z,10.80
2018-05-03T01:09:55.720Z,10.90
2018-05-03T01:12:24.013Z,11.10
2018-05-03T01:14:52.360Z,11.00
2018-05-03T01:17:20.653Z,10.70
2018-05-03T01:19:49.000Z,10.60
2018-05-03T01:22:18.061Z,10.70
2018-05-03T01:24:46.406Z,10.70
2018-05-03T01:27:15.465Z,10.80
2018-05-03T01:29:43.813Z,10.80
2018-05-03T01:32:12.113Z,10.80
2018-05-03T01:34:40.557Z,10.80
2018-05-03T01:37:08.897Z,10.90
2018-05-03T01:39:37.209Z,11.10
2018-05-03T01:42:05.556Z,11.00
2018-05-03T01:44:34.681Z,10.90
2018-05-03T01:47:02.977Z,10.90
2018-05-03T01:49:31.273Z,10.90
2018-05-03T01:51:59.620Z,10.80
2018-05-03T01:54:28.685Z,10.70
2018-05-03T01:56:56.981Z,10.70
2018-05-03T01:59:25.337Z,11.00
2018-05-03T02:01:53.633Z,11.00
2018-05-03T02:04:21.925Z,11.00
2018-05-03T02:06:50.281Z,10.90
2018-05-03T02:09:19.333Z,10.80
2018-05-03T02:11:47.676Z,10.80
2018-05-03T02:14:16.761Z,11.00
2018-05-03T02:16:45.106Z,11.00
2018-05-03T02:19:13.542Z,11.00
2018-05-03T02:21:41.889Z,10.90
2018-05-03T02:24:10.232Z,11.00
2018-05-03T02:26:38.670Z,11.00
2018-05-03T02:29:07.048Z,10.90
2018-05-03T02:31:35.344Z,10.80
2018-05-03T02:34:03.694Z,10.80
2018-05-03T02:36:32.797Z,11.10
2018-05-03T02:39:01.141Z,11.10
2018-05-03T02:41:29.781Z,11.10
2018-05-03T02:43:58.081Z,11.00
2018-05-03T02:46:26.461Z,11.10
2018-05-03T02:48:54.808Z,11.10
2018-05-03T02:51:23.105Z,11.10
2018-05-03T02:53:51.456Z,11.00
2018-05-03T02:56:20.513Z,11.20
2018-05-03T02:59:00.833Z,11.20
2018-05-03T03:01:47.717Z,11.00
2018-05-03T03:04:33.841Z,11.00
2018-05-03T03:07:20.037Z,11.00
2018-05-03T03:13:34.308Z,11.10
2018-05-03T03:16:20.272Z,11.00
2018-05-03T03:19:06.388Z,10.90
2018-05-03T03:28:14.718Z,10.60
2018-05-03T03:31:01.450Z,10.60
2018-05-03T03:33:41.729Z,10.50
2018-05-03T03:36:21.733Z,10.50
2018-05-03T03:39:01.949Z,10.60
2018-05-03T03:41:51.973Z,10.60
2018-05-03T03:44:32.381Z,10.70
2018-05-03T03:47:00.677Z,10.80
2018-05-03T03:49:28.969Z,10.90
2018-05-03T03:51:58.077Z,11.10
2018-05-03T03:54:26.436Z,11.10
2018-05-03T03:56:54.797Z,11.00
2018-05-03T03:59:23.161Z,10.90
2018-05-03T04:01:52.225Z,10.90
2018-05-03T04:04:20.516Z,10.90
2018-05-03T04:06:49.024Z,11.10
2018-05-03T04:09:17.320Z,11.20
2018-05-03T04:11:45.615Z,11.10
2018-05-03T04:14:15.021Z,11.10
2018-05-03T04:16:43.325Z,11.10
2018-05-03T04:19:23.609Z,11.10
2018-05-03T04:22:04.487Z,11.10
2018-05-03T04:24:45.664Z,11.10
2018-05-03T04:27:13.960Z,11.10
2018-05-03T04:29:43.021Z,11.30
2018-05-03T04:32:11.361Z,11.30
2018-05-03T04:34:40.489Z,11.00
2018-05-03T04:37:08.789Z,11.10
2018-05-03T04:39:37.134Z,11.10
2018-05-03T04:42:05.481Z,11.40
2018-05-03T04:44:33.777Z,11.40
2018-05-03T04:47:02.208Z,11.30
2018-05-03T04:49:31.195Z,11.40
2018-05-03T04:51:59.541Z,11.40
2018-05-03T04:54:27.889Z,11.40
2018-05-03T04:56:56.237Z,11.30
2018-05-03T04:59:24.533Z,11.40
2018-05-03T05:01:52.882Z,11.40
2018-05-03T05:04:21.941Z,11.40
2018-05-03T05:06:50.293Z,11.40
2018-05-03T05:09:18.585Z,11.30
2018-05-03T05:11:46.934Z,11.30
2018-05-03T05:14:15.292Z,11.30
2018-05-03T05:16:43.581Z,11.30
2018-05-03T05:19:11.882Z,11.30
2018-05-03T05:21:40.994Z,11.20
2018-05-03T05:24:09.321Z,11.20
2018-05-03T05:26:38.384Z,11.50
2018-05-03T05:29:06.729Z,11.50
2018-05-03T05:31:35.915Z,11.70
2018-05-03T05:34:04.216Z,11.70
2018-05-03T05:36:32.509Z,11.70
2018-05-03T05:39:01.696Z,11.80
2018-05-03T05:41:29.992Z,11.80
2018-05-03T05:43:58.337Z,11.90
2018-05-03T05:46:26.629Z,11.90
2018-05-03T05:48:54.973Z,11.90
2018-05-03T05:51:24.037Z,11.90
2018-05-03T05:53:52.396Z,11.90
2018-05-03T05:56:20.697Z,11.90
2018-05-03T05:58:48.995Z,12.00
2018-05-03T06:01:17.337Z,12.10
2018-05-03T06:03:45.634Z,12.40
2018-05-03T06:06:14.741Z,12.50
2018-05-03T06:08:43.832Z,12.60
2018-05-03T06:11:12.945Z,12.70
2018-05-03T06:13:42.004Z,12.70
2018-05-03T06:16:10.349Z,12.70
2018-05-03T06:18:39.456Z,12.80
2018-05-03T06:21:07.749Z,12.80
2018-05-03T06:23:36.090Z,13.00
2018-05-03T06:26:04.438Z,13.00
2018-05-03T06:28:32.753Z,12.90
2018-05-03T06:31:01.045Z,12.80
2018-05-03T06:33:29.688Z,12.70
2018-05-03T06:35:57.985Z,12.80
2018-05-03T06:38:26.284Z,12.90
2018-05-03T06:40:55.397Z,12.60
2018-05-03T06:43:24.506Z,12.50
2018-05-03T06:45:53.568Z,12.60
2018-05-03T06:48:21.928Z,12.60
2018-05-03T06:50:50.221Z,12.70
2018-05-03T06:53:18.517Z,13.00
2018-05-03T06:55:46.856Z,13.20
2018-05-03T06:58:15.149Z,13.30
2018-05-03T07:00:44.656Z,13.60
2018-05-03T07:03:13.049Z,13.60
2018-05-03T07:05:42.116Z,13.90
2018-05-03T07:08:10.463Z,13.90
2018-05-03T07:10:38.754Z,14.00
2018-05-03T07:13:07.228Z,14.00
2018-05-03T07:15:35.573Z,14.40
2018-05-03T07:18:03.993Z,14.70
2018-05-03T07:20:32.224Z,14.70
2018-05-03T07:23:01.281Z,14.70
2018-05-03T07:25:29.651Z,14.70
2018-05-03T07:27:57.941Z,14.70
2018-05-03T07:30:26.241Z,14.70
2018-05-03T07:32:54.573Z,14.50
2018-05-03T07:35:22.865Z,14.30
2018-05-03T07:37:51.978Z,14.30
2018-05-03T07:40:20.269Z,14.30
2018-05-03T07:42:49.460Z,14.20
2018-05-03T07:45:17.762Z,14.10
2018-05-03T07:47:46.148Z,14.10
2018-05-03T07:50:14.532Z,14.30
2018-05-03T07:52:42.925Z,14.50
2018-05-03T07:55:11.312Z,14.90
2018-05-03T07:57:39.653Z,15.10
2018-05-03T08:00:07.952Z,15.10
2018-05-03T08:02:36.296Z,15.20
2018-05-03T08:05:05.362Z,15.20
2018-05-03T08:07:33.701Z,15.20
2018-05-03T08:10:02.761Z,15.70
2018-05-03T08:12:31.061Z,15.70
2018-05-03T08:14:59.409Z,15.90
2018-05-03T08:17:27.697Z,16.10
2018-05-03T08:19:56.041Z,15.80
2018-05-03T08:22:24.366Z,15.50
2018-05-03T08:24:52.692Z,15.40
2018-05-03T08:27:21.017Z,15.70
2018-05-03T08:29:49.302Z,15.80
2018-05-03T08:32:17.696Z,15.70
2018-05-03T08:34:46.092Z,15.70
2018-05-03T08:37:14.376Z,15.70
2018-05-03T08:39:42.708Z,15.80
2018-05-03T08:42:11.884Z,15.70
2018-05-03T08:44:40.269Z,15.70
2018-05-03T08:47:08.549Z,16.20
2018-05-03T08:49:37.255Z,16.40
2018-05-03T08:52:05.544Z,16.50
2018-05-03T08:54:33.829Z,16.50
2018-05-03T08:57:02.170Z,16.50
2018-05-03T08:59:30.517Z,17.00
2018-05-03T09:01:58.797Z,16.90
2018-05-03T09:04:27.133Z,17.00
2018-05-03T09:06:56.177Z,17.10
2018-05-03T09:09:24.511Z,17.10
2018-05-03T09:11:53.609Z,17.00
2018-05-03T09:14:21.892Z,17.00
2018-05-03T09:16:50.272Z,17.20
2018-05-03T09:19:18.556Z,17.10
2018-05-03T09:21:46.880Z,17.10
2018-05-03T09:24:15.973Z,17.10
2018-05-03T09:26:44.252Z,17.10
2018-05-03T09:29:12.597Z,17.20
2018-05-03T09:31:40.929Z,17.20
2018-05-03T09:34:09.212Z,17.50
2018-05-03T09:36:37.544Z,17.90
2018-05-03T09:39:06.610Z,18.10
2018-05-03T09:41:35.009Z,18.10
2018-05-03T09:44:03.348Z,18.00
2018-05-03T09:46:31.638Z,18.30
2018-05-03T09:49:00.210Z,18.30
2018-05-03T09:51:29.252Z,18.30
2018-05-03T09:53:57.581Z,18.30
2018-05-03T09:56:25.912Z,18.50
2018-05-03T09:58:54.193Z,18.70
2018-05-03T10:01:23.264Z,18.80
2018-05-03T10:03:51.758Z,18.80
2018-05-03T10:06:20.040Z,19.00
2018-05-03T10:08:48.321Z,19.20
2018-05-03T10:11:16.665Z,18.80
2018-05-03T10:13:45.709Z,18.90
2018-05-03T10:16:13.993Z,18.80
2018-05-03T10:18:42.320Z,18.90
2018-05-03T10:21:10.597Z,19.20
2018-05-03T10:23:39.198Z,19.30
2018-05-03T10:26:07.477Z,19.20
2018-05-03T10:28:35.776Z,19.50
2018-05-03T10:31:04.168Z,19.30
2018-05-03T10:33:33.289Z,19.50
2018-05-03T10:36:01.643Z,19.50
2018-05-03T10:38:29.936Z,19.70
2018-05-03T10:40:58.549Z,20.00
2018-05-03T10:43:26.832Z,19.90
2018-05-03T10:45:55.140Z,20.00
2018-05-03T10:48:23.461Z,20.10
2018-05-03T10:50:52.529Z,20.10
2018-05-03T10:53:20.860Z,20.00
2018-05-03T10:55:49.152Z,19.70
2018-05-03T10:58:18.221Z,19.50
2018-05-03T11:00:48.064Z,19.50
2018-05-03T11:03:17.112Z,19.70
2018-05-03T11:05:45.536Z,19.70
2018-05-03T11:08:13.820Z,19.70
2018-05-03T11:10:42.165Z,19.70
2018-05-03T11:13:10.449Z,19.70
2018-05-03T11:15:39.496Z,20.20
2018-05-03T11:18:07.832Z,20.20
2018-05-03T11:20:36.877Z,20.50
2018-05-03T11:23:05.304Z,20.50
2018-05-03T11:25:33.585Z,20.60
2018-05-03T11:28:01.912Z,20.30
2018-05-03T11:30:30.961Z,20.10
2018-05-03T11:32:59.240Z,20.10
2018-05-03T11:35:27.665Z,20.10
2018-05-03T11:37:56.002Z,20.30
2018-05-03T11:40:25.065Z,20.40
2018-05-03T11:42:53.448Z,20.40
2018-05-03T11:45:21.745Z,20.30
2018-05-03T11:47:50.026Z,20.40
2018-05-03T11:50:18.427Z,20.50
2018-05-03T11:52:46.705Z,20.70
2018-05-03T11:55:15.037Z,20.60
2018-05-03T11:57:44.129Z,20.20
2018-05-03T12:00:13.224Z,20.20
2018-05-03T12:02:41.606Z,20.20
2018-05-03T12:05:09.877Z,20.20
2018-05-03T12:07:38.160Z,20.50
2018-05-03T12:10:06.584Z,20.30
2018-05-03T12:12:34.861Z,20.10
2018-05-03T12:15:03.189Z,19.90
2018-05-03T12:17:32.277Z,20.30
2018-05-03T12:20:01.458Z,20.20
2018-05-03T12:22:29.741Z,20.30
2018-05-03T12:24:58.156Z,20.40
2018-05-03T12:27:26.644Z,20.90
2018-05-03T12:29:54.965Z,21.20
2018-05-03T12:32:23.245Z,21.30
2018-05-03T12:34:51.694Z,21.20
2018-05-03T12:37:21.548Z,21.20
2018-05-03T12:39:49.877Z,21.20
2018-05-03T12:42:18.953Z,21.60
2018-05-03T12:44:47.232Z,21.60
2018-05-03T12:47:15.564Z,21.80
2018-05-03T12:49:44.616Z,21.10
2018-05-03T12:52:12.948Z,21.10
2018-05-03T12:54:41.313Z,20.90
2018-05-03T12:57:09.641Z,20.90
2018-05-03T12:59:38.688Z,20.90
2018-05-03T13:02:07.101Z,20.80
2018-05-03T13:04:35.432Z,21.10
2018-05-03T13:07:04.525Z,21.30
2018-05-03T13:09:32.809Z,21.20
2018-05-03T13:12:01.164Z,21.20
2018-05-03T13:14:29.445Z,21.30
2018-05-03T13:16:57.847Z,21.30
2018-05-03T13:19:26.249Z,21.20
2018-05-03T13:21:54.540Z,20.80
2018-05-03T13:24:22.868Z,21.00
2018-05-03T13:26:51.917Z,20.80
2018-05-03T13:29:20.324Z,20.70
2018-05-03T13:31:48.605Z,20.60
2018-05-03T13:34:16.888Z,20.30
2018-05-03T13:36:45.216Z,20.50
2018-05-03T13:39:13.497Z,20.40
2018-05-03T13:41:41.825Z,20.40
2018-05-03T13:44:10.170Z,20.70
2018-05-03T13:46:38.501Z,20.90
2018-05-03T13:49:07.545Z,21.10
2018-05-03T13:51:35.872Z,21.10
2018-05-03T13:54:04.214Z,21.50
2018-05-03T13:56:32.545Z,21.70
2018-05-03T13:59:00.881Z,21.50
2018-05-03T14:01:29.164Z,21.80
2018-05-03T14:03:58.324Z,21.40
2018-05-03T14:06:26.682Z,21.40
2018-05-03T14:08:54.961Z,21.10
2018-05-03T14:11:23.288Z,21.20
2018-05-03T14:13:51.569Z,21.20
2018-05-03T14:16:19.893Z,20.90
2018-05-03T14:18:48.172Z,20.60
2018-05-03T14:21:18.708Z,20.90
2018-05-03T14:23:46.995Z,20.90
2018-05-03T14:26:15.272Z,21.20
2018-05-03T14:28:43.601Z,20.90
2018-05-03T14:31:11.959Z,21.30
2018-05-03T14:33:40.257Z,21.30
2018-05-03T14:36:08.545Z,21.00
2018-05-03T14:38:36.877Z,20.80
2018-05-03T14:41:05.925Z,20.40
2018-05-03T14:43:34.253Z,20.40
2018-05-03T14:46:02.701Z,20.40
2018-05-03T14:48:31.033Z,20.80
2018-05-03T14:50:59.361Z,20.80
2018-05-03T14:53:27.645Z,20.90
2018-05-03T14:55:55.973Z,20.80
2018-05-03T14:58:24.256Z,21.20
2018-05-03T15:00:52.609Z,21.10
2018-05-03T15:03:21.644Z,21.60
2018-05-03T15:05:49.985Z,21.60
2018-05-03T15:08:18.316Z,21.60
2018-05-03T15:10:46.641Z,21.80
2018-05-03T15:13:15.236Z,21.40
2018-05-03T15:15:43.521Z,21.10
2018-05-03T15:18:11.839Z,20.20
2018-05-03T15:20:40.145Z,19.60
2018-05-03T15:23:09.216Z,18.60
2018-05-03T15:25:37.604Z,18.60
2018-05-03T15:28:05.940Z,19.20
2018-05-03T15:30:34.986Z,20.60
2018-05-03T15:33:03.320Z,20.60
2018-05-03T15:35:32.372Z,19.00
2018-05-03T15:38:00.656Z,18.90
2018-05-03T15:40:29.086Z,18.60
2018-05-03T15:42:57.416Z,19.10
2018-05-03T15:45:25.700Z,20.10
2018-05-03T15:47:54.868Z,20.10
2018-05-03T15:50:23.200Z,20.10
2018-05-03T15:52:52.552Z,18.80
2018-05-03T15:55:20.866Z,18.80
2018-05-03T15:57:49.149Z,19.40
2018-05-03T16:00:17.549Z,19.90
2018-05-03T16:02:45.824Z,19.80
2018-05-03T16:05:14.113Z,19.20
2018-05-03T16:07:42.510Z,19.00
2018-05-03T16:10:11.626Z,19.10
2018-05-03T16:12:39.906Z,19.10
2018-05-03T16:15:08.309Z,19.30
2018-05-03T16:17:36.595Z,19.50
2018-05-03T16:20:04.992Z,20.10
2018-05-03T16:22:33.321Z,20.10
2018-05-03T16:25:02.365Z,19.50
2018-05-03T16:27:30.761Z,19.50
2018-05-03T16:29:59.377Z,19.50
2018-05-03T16:32:27.765Z,19.70
2018-05-03T16:34:56.049Z,19.10
2018-05-03T16:37:24.388Z,19.40
2018-05-03T16:39:53.456Z,19.40
2018-05-03T16:42:21.788Z,19.40
2018-05-03T16:44:50.093Z,19.50
2018-05-03T16:47:18.425Z,19.80
2018-05-03T16:49:46.718Z,19.50
2018-05-03T16:52:15.001Z,18.60
2018-05-03T16:54:43.335Z,17.80
2018-05-03T16:57:12.381Z,16.90
2018-05-03T16:59:40.709Z,16.90
2018-05-03T17:02:10.493Z,16.60
2018-05-03T17:04:38.829Z,16.50
2018-05-03T17:07:07.200Z,16.60
2018-05-03T17:09:35.481Z,16.60
2018-05-03T17:12:03.808Z,16.40
2018-05-03T17:14:32.861Z,16.10
2018-05-03T17:17:01.201Z,16.00
2018-05-03T17:19:29.530Z,16.00
2018-05-03T17:21:57.826Z,15.90
2018-05-03T17:24:26.154Z,15.90
2018-05-03T17:26:54.433Z,15.80
2018-05-03T17:29:22.764Z,15.80
2018-05-03T17:31:51.880Z,15.60
2018-05-03T17:34:20.161Z,15.60
2018-05-03T17:36:49.230Z,15.60
2018-05-03T17:39:17.827Z,15.60
2018-05-03T17:41:46.108Z,15.50
2018-05-03T17:44:14.397Z,15.40
2018-05-03T17:46:42.724Z,15.30
2018-05-03T17:49:11.817Z,15.20
2018-05-03T17:51:40.096Z,15.20
2018-05-03T17:54:08.693Z,15.20
2018-05-03T17:56:36.977Z,15.00
2018-05-03T17:59:05.260Z,14.90
2018-05-03T18:01:33.589Z,15.00
2018-05-03T18:04:02.773Z,14.70
2018-05-03T18:06:31.065Z,14.70
2018-05-03T18:08:59.760Z,14.60
2018-05-03T18:11:28.053Z,14.60
2018-05-03T18:13:56.332Z,14.50
2018-05-03T18:16:24.765Z,14.40
2018-05-03T18:18:53.016Z,14.40
2018-05-03T18:21:21.371Z,14.30
2018-05-03T18:23:49.649Z,14.20
2018-05-03T18:26:18.010Z,14.20
2018-05-03T18:28:46.352Z,14.20
2018-05-03T18:31:14.638Z,14.10
2018-05-03T18:33:42.981Z,14.00
2018-05-03T18:36:12.029Z,13.80
2018-05-03T18:38:40.352Z,13.70
2018-05-03T18:41:09.872Z,13.70
2018-05-03T18:43:38.261Z,13.70
2018-05-03T18:46:06.552Z,13.60
2018-05-03T18:48:34.885Z,13.60
2018-05-03T18:51:03.976Z,13.40
2018-05-03T18:53:32.297Z,13.30
2018-05-03T18:56:00.624Z,13.40
2018-05-03T18:58:28.913Z,13.30
2018-05-03T19:00:57.202Z,13.30
2018-05-03T19:03:25.533Z,13.20
2018-05-03T19:05:54.709Z,13.20
2018-05-03T19:08:22.996Z,13.10
2018-05-03T19:10:51.333Z,13.10
2018-05-03T19:13:19.701Z,13.00
2018-05-03T19:15:48.005Z,12.90
2018-05-03T19:18:17.109Z,12.80
2018-05-03T19:20:46.226Z,12.70
2018-05-03T19:23:15.468Z,12.70
2018-05-03T19:25:43.693Z,12.70
2018-05-03T19:28:12.049Z,12.70
2018-05-03T19:30:40.328Z,12.60
2018-05-03T19:33:08.614Z,12.50
2018-05-03T19:35:37.074Z,12.50
2018-05-03T19:38:05.277Z,12.50
2018-05-03T19:40:33.565Z,12.40
2018-05-03T19:43:01.900Z,12.40
2018-05-03T19:45:30.229Z,12.40
2018-05-03T19:47:59.281Z,12.30
2018-05-03T19:50:27.600Z,12.30
2018-05-03T19:52:56.197Z,12.20
2018-05-03T19:55:24.560Z,12.10
2018-05-03T19:57:52.833Z,12.10
2018-05-03T20:00:21.177Z,12.00
2018-05-03T20:02:49.557Z,12.00
2018-05-03T20:05:17.897Z,11.90
2018-05-03T20:07:46.183Z,11.90
2018-05-03T20:10:14.524Z,12.00
2018-05-03T20:12:42.830Z,12.00
2018-05-03T20:15:12.650Z,11.90
2018-05-03T20:17:41.761Z,11.90
2018-05-03T20:20:10.045Z,11.90
2018-05-03T20:22:38.428Z,11.90
2018-05-03T20:25:06.765Z,11.80
2018-05-03T20:27:35.418Z,11.60
2018-05-03T20:30:03.705Z,11.60
2018-05-03T20:32:31.988Z,11.60
2018-05-03T20:35:00.322Z,11.60
2018-05-03T20:37:29.375Z,11.50
2018-05-03T20:39:57.705Z,11.50
2018-05-03T20:42:26.764Z,11.40
2018-05-03T20:44:55.093Z,11.40
2018-05-03T20:47:23.376Z,11.40
2018-05-03T20:49:51.724Z,11.40
2018-05-03T20:52:20.009Z,11.30
2018-05-03T20:54:48.300Z,11.30
2018-05-03T20:57:16.633Z,11.30
2018-05-03T20:59:44.920Z,11.30
2018-05-03T21:02:13.305Z,11.20
2018-05-03T21:04:41.699Z,11.20
2018-05-03T21:07:10.054Z,11.10
2018-05-03T21:09:38.372Z,11.00
2018-05-03T21:12:06.660Z,11.10
2018-05-03T21:14:35.005Z,11.10
2018-05-03T21:17:03.285Z,11.10
2018-05-03T21:19:32.337Z,10.90
2018-05-03T21:22:00.749Z,10.80
2018-05-03T21:24:30.545Z,10.80
2018-05-03T21:26:58.959Z,10.80
2018-05-03T21:29:27.248Z,10.80
2018-05-03T21:31:55.576Z,10.90
2018-05-03T21:34:24.676Z,10.80
2018-05-03T21:36:53.728Z,10.60
2018-05-03T21:39:22.067Z,10.60
2018-05-03T21:41:50.349Z,10.40
2018-05-03T21:44:18.735Z,10.40
2018-05-03T21:46:47.073Z,10.40
2018-05-03T21:49:15.357Z,10.50
2018-05-03T21:51:43.640Z,10.50
2018-05-03T21:54:12.741Z,10.20
2018-05-03T21:56:42.008Z,10.10
2018-05-03T21:59:10.293Z,10.20
2018-05-03T22:01:38.613Z,10.20
2018-05-03T22:04:06.962Z,10.20
2018-05-03T22:06:35.246Z,10.10
2018-05-03T22:09:03.540Z,10.00
2018-05-03T22:11:31.880Z,9.90
2018-05-03T22:14:00.252Z,9.80
2018-05-03T22:16:28.492Z,9.70
2018-05-03T22:18:56.772Z,9.50
2018-05-03T22:21:25.861Z,9.60
2018-05-03T22:23:54.240Z,9.50
2018-05-03T22:26:22.581Z,9.60
2018-05-03T22:28:50.857Z,9.50
2018-05-03T22:31:19.901Z,9.50
2018-05-03T22:33:48.229Z,9.50
2018-05-03T22:36:16.504Z,9.50
2018-05-03T22:38:44.893Z,9.50
2018-05-03T22:41:13.169Z,9.50
2018-05-03T22:43:41.496Z,9.20
2018-05-03T22:46:09.777Z,9.00
2018-05-03T22:48:38.106Z,8.80
2018-05-03T22:51:06.386Z,8.70
2018-05-03T22:53:35.476Z,8.90
2018-05-03T22:56:03.848Z,8.90
2018-05-03T22:58:32.236Z,9.00
2018-05-03T23:01:00.628Z,9.00
2018-05-03T23:03:28.906Z,9.00
2018-05-03T23:05:57.184Z,8.80
2018-05-03T23:08:25.505Z,8.80
2018-05-03T23:10:53.781Z,8.70
2018-05-03T23:13:22.115Z,8.80
2018-05-03T23:15:51.180Z,8.70
2018-05-03T23:18:19.456Z,8.70
2018-05-03T23:20:47.868Z,8.60
2018-05-03T23:23:16.149Z,8.40
2018-05-03T23:25:44.426Z,8.20
2018-05-03T23:28:12.764Z,8.10
2018-05-03T23:30:41.813Z,8.00
2018-05-03T23:33:10.089Z,8.00
2018-05-03T23:35:38.732Z,8.00
2018-05-03T23:38:07.004Z,8.10
2018-05-03T23:40:35.284Z,8.00
2018-05-03T23:43:03.613Z,8.00
2018-05-03T23:45:33.440Z,8.00
2018-05-03T23:48:01.717Z,8.00
2018-05-03T23:50:30.041Z,8.00
2018-05-03T23:52:59.117Z,7.90
2018-05-03T23:55:27.445Z,7.80
2018-05-03T23:57:56.489Z,7.50
